createdAt,value
2019-02-25T00:02:02.271Z,5.30
2019-02-25T00:04:31.551Z,5.20
2019-02-25T00:07:00.527Z,5.10
2019-02-25T00:09:29.646Z,5.00
2019-02-25T00:11:58.755Z,4.90
2019-02-25T00:14:27.703Z,4.90
2019-02-25T00:16:56.591Z,4.80
2019-02-25T00:19:25.394Z,4.70
2019-02-25T00:21:54.375Z,4.70
2019-02-25T00:24:23.191Z,4.60
2019-02-25T00:26:51.991Z,4.70
2019-02-25T00:29:20.778Z,4.60
2019-02-25T00:31:49.893Z,4.50
2019-02-25T00:34:18.706Z,4.50
2019-02-25T00:36:47.895Z,4.70
2019-02-25T00:39:16.725Z,4.80
2019-02-25T00:41:45.787Z,4.80
2019-02-25T00:44:14.595Z,4.70
2019-02-25T00:46:43.698Z,4.70
2019-02-25T00:49:12.842Z,4.70
2019-02-25T00:51:41.749Z,4.70
2019-02-25T00:54:10.598Z,4.60
2019-02-25T00:56:39.632Z,4.60
2019-02-25T00:59:08.772Z,4.60
2019-02-25T01:01:37.907Z,4.60
2019-02-25T01:04:07.115Z,4.60
2019-02-25T01:06:36.282Z,4.60
2019-02-25T01:09:07.066Z,4.60
2019-02-25T01:11:36.297Z,4.50
2019-02-25T01:14:05.734Z,4.50
2019-02-25T01:16:34.756Z,4.50
2019-02-25T01:19:03.673Z,4.50
2019-02-25T01:21:32.696Z,4.50
2019-02-25T01:24:01.700Z,4.50
2019-02-25T01:26:30.811Z,4.40
2019-02-25T01:28:59.581Z,4.40
2019-02-25T01:31:28.391Z,4.30
2019-02-25T01:33:57.479Z,4.30
2019-02-25T01:36:26.255Z,4.20
2019-02-25T01:38:55.255Z,4.20
2019-02-25T01:41:24.019Z,4.20
2019-02-25T01:43:52.805Z,4.10
2019-02-25T01:46:21.614Z,4.10
2019-02-25T01:48:50.387Z,4.10
2019-02-25T01:51:19.450Z,4.10
2019-02-25T01:53:48.234Z,4.10
2019-02-25T01:56:17.251Z,4.10
2019-02-25T01:58:46.365Z,4.10
2019-02-25T02:01:15.331Z,4.00
2019-02-25T02:03:44.375Z,4.00
2019-02-25T02:06:13.210Z,4.00
2019-02-25T02:08:42.291Z,4.00
2019-02-25T02:11:11.416Z,4.00
2019-02-25T02:13:40.685Z,4.00
2019-02-25T02:16:09.703Z,3.90
2019-02-25T02:18:38.473Z,3.80
2019-02-25T02:21:07.327Z,3.80
2019-02-25T02:23:36.378Z,3.70
2019-02-25T02:26:05.325Z,3.60
2019-02-25T02:28:34.112Z,3.50
2019-02-25T02:31:02.912Z,3.40
2019-02-25T02:33:31.959Z,3.40
2019-02-25T02:36:00.813Z,3.40
2019-02-25T02:38:29.588Z,3.40
2019-02-25T02:40:58.357Z,3.40
2019-02-25T02:43:27.382Z,3.40
2019-02-25T02:46:20.443Z,3.40
2019-02-25T02:48:55.859Z,3.40
2019-02-25T02:51:24.784Z,3.40
2019-02-25T02:53:53.659Z,3.30
2019-02-25T02:56:22.901Z,3.30
2019-02-25T02:58:52.027Z,3.20
2019-02-25T03:01:20.939Z,3.30
2019-02-25T03:03:49.770Z,3.30
2019-02-25T03:06:18.806Z,3.30
2019-02-25T03:08:47.828Z,3.20
2019-02-25T03:11:17.085Z,3.20
2019-02-25T03:13:46.099Z,3.20
2019-02-25T03:16:14.875Z,3.10
2019-02-25T03:18:43.703Z,3.10
2019-02-25T03:21:12.455Z,3.00
2019-02-25T03:23:41.521Z,3.00
2019-02-25T03:26:10.561Z,3.00
2019-02-25T03:28:39.649Z,3.00
2019-02-25T03:31:08.466Z,3.10
2019-02-25T03:33:37.499Z,3.10
2019-02-25T03:36:06.699Z,3.10
2019-02-25T03:38:35.475Z,3.10
2019-02-25T03:41:04.523Z,3.10
2019-02-25T03:43:33.298Z,3.10
2019-02-25T03:46:02.224Z,3.10
2019-02-25T03:48:31.242Z,3.10
2019-02-25T03:51:00.085Z,3.10
2019-02-25T03:53:29.080Z,3.10
2019-02-25T03:55:58.250Z,3.10
2019-02-25T03:58:27.163Z,3.10
2019-02-25T04:00:56.011Z,3.10
2019-02-25T04:03:25.482Z,3.10
2019-02-25T04:05:54.315Z,3.10
2019-02-25T04:08:23.231Z,3.10
2019-02-25T04:10:51.998Z,3.10
2019-02-25T04:13:20.767Z,3.10
2019-02-25T04:15:49.788Z,3.10
2019-02-25T04:18:19.032Z,3.00
2019-02-25T04:20:47.800Z,3.00
2019-02-25T04:23:16.866Z,3.00
2019-02-25T04:25:45.702Z,2.90
2019-02-25T04:28:14.475Z,2.90
2019-02-25T04:30:43.230Z,2.90
2019-02-25T04:33:12.280Z,2.80
2019-02-25T04:35:41.044Z,2.80
2019-02-25T04:38:10.194Z,2.80
2019-02-25T04:40:39.248Z,2.80
2019-02-25T04:43:08.040Z,2.90
2019-02-25T04:45:37.124Z,2.90
2019-02-25T04:48:05.974Z,2.90
2019-02-25T04:50:34.758Z,2.80
2019-02-25T04:53:03.604Z,2.80
2019-02-25T04:55:32.689Z,2.80
2019-02-25T04:58:01.461Z,2.70
2019-02-25T05:00:30.618Z,2.70
2019-02-25T05:02:59.727Z,2.50
2019-02-25T05:05:28.459Z,2.40
2019-02-25T05:07:57.291Z,2.40
2019-02-25T05:10:26.401Z,2.40
2019-02-25T05:13:03.022Z,2.40
2019-02-25T05:15:32.310Z,2.40
2019-02-25T05:18:01.103Z,2.40
2019-02-25T05:20:30.034Z,2.30
2019-02-25T05:22:59.186Z,2.20
2019-02-25T05:25:28.161Z,2.30
2019-02-25T05:27:56.999Z,2.30
2019-02-25T05:30:25.915Z,2.20
2019-02-25T05:32:54.711Z,2.10
2019-02-25T05:35:23.664Z,2.20
2019-02-25T05:37:52.454Z,2.10
2019-02-25T05:40:21.631Z,2.20
2019-02-25T05:42:50.434Z,2.20
2019-02-25T05:45:19.306Z,2.20
2019-02-25T05:47:48.150Z,2.10
2019-02-25T05:50:17.034Z,2.10
2019-02-25T05:52:46.005Z,2.10
2019-02-25T05:55:14.789Z,2.10
2019-02-25T05:57:43.670Z,2.10
2019-02-25T06:00:16.562Z,2.10
2019-02-25T06:02:45.688Z,1.90
2019-02-25T06:05:14.548Z,1.90
2019-02-25T06:07:43.411Z,1.90
2019-02-25T06:10:12.382Z,1.90
2019-02-25T06:12:41.226Z,1.80
2019-02-25T06:15:10.777Z,1.70
2019-02-25T06:17:39.755Z,1.70
2019-02-25T06:20:09.498Z,1.80
2019-02-25T06:22:38.266Z,1.80
2019-02-25T06:25:07.461Z,1.90
2019-02-25T06:27:36.221Z,1.90
2019-02-25T06:30:06.090Z,1.90
2019-02-25T06:32:35.225Z,1.90
2019-02-25T06:35:04.641Z,1.90
2019-02-25T06:37:33.496Z,1.90
2019-02-25T06:40:02.359Z,1.90
2019-02-25T06:42:31.403Z,2.00
2019-02-25T06:45:00.543Z,2.00
2019-02-25T06:47:29.344Z,2.10
2019-02-25T06:49:58.126Z,2.20
2019-02-25T06:52:27.353Z,2.20
2019-02-25T06:54:56.151Z,2.30
2019-02-25T06:57:25.601Z,2.30
2019-02-25T06:59:54.364Z,2.30
2019-02-25T07:02:23.230Z,2.40
2019-02-25T07:05:04.227Z,2.40
2019-02-25T07:07:50.876Z,2.50
2019-02-25T07:10:41.951Z,2.60
2019-02-25T07:13:32.701Z,2.60
2019-02-25T07:16:14.242Z,2.70
2019-02-25T07:19:17.487Z,2.80
2019-02-25T07:22:01.076Z,2.90
2019-02-25T07:24:42.475Z,3.00
2019-02-25T07:27:23.431Z,3.10
2019-02-25T07:30:08.332Z,3.20
2019-02-25T07:32:45.687Z,3.30
2019-02-25T07:35:36.363Z,3.50
2019-02-25T07:38:24.558Z,3.60
2019-02-25T07:41:18.543Z,3.80
2019-02-25T07:44:06.255Z,3.90
2019-02-25T07:47:02.967Z,4.00
2019-02-25T07:49:54.577Z,4.10
2019-02-25T07:52:48.414Z,4.20
2019-02-25T07:55:32.639Z,4.30
2019-02-25T07:58:15.826Z,4.40
2019-02-25T08:00:48.734Z,4.50
2019-02-25T08:03:26.444Z,4.60
2019-02-25T08:06:13.086Z,4.60
2019-02-25T08:09:04.632Z,4.70
2019-02-25T08:11:55.674Z,4.80
2019-02-25T08:14:43.890Z,4.80
2019-02-25T08:17:34.563Z,4.90
2019-02-25T08:20:20.995Z,5.00
2019-02-25T08:23:07.544Z,5.10
2019-02-25T08:25:54.199Z,5.20
2019-02-25T08:28:38.619Z,5.20
2019-02-25T08:31:35.407Z,5.30
2019-02-25T08:34:21.638Z,5.30
2019-02-25T08:37:33.158Z,5.40
2019-02-25T08:40:31.040Z,5.50
2019-02-25T08:43:05.930Z,5.60
2019-02-25T08:46:03.276Z,5.60
2019-02-25T08:48:39.307Z,5.70
2019-02-25T08:51:08.138Z,5.70
2019-02-25T08:53:37.046Z,5.80
2019-02-25T08:56:06.042Z,5.80
2019-02-25T08:58:35.197Z,5.90
2019-02-25T09:01:04.487Z,6.00
2019-02-25T09:03:33.578Z,6.00
2019-02-25T09:06:02.354Z,6.10
2019-02-25T09:08:31.542Z,6.10
2019-02-25T09:11:00.639Z,6.20
2019-02-25T09:13:29.781Z,6.20
2019-02-25T09:15:58.523Z,6.30
2019-02-25T09:18:27.525Z,6.30
2019-02-25T09:20:56.267Z,6.40
2019-02-25T09:23:25.663Z,6.50
2019-02-25T09:25:54.462Z,6.60
2019-02-25T09:28:23.293Z,6.60
2019-02-25T09:30:52.040Z,6.70
2019-02-25T09:33:20.871Z,6.80
2019-02-25T09:35:49.616Z,6.90
2019-02-25T09:38:18.651Z,7.00
2019-02-25T09:40:47.491Z,7.00
2019-02-25T09:43:16.504Z,7.10
2019-02-25T09:45:45.261Z,7.10
2019-02-25T09:48:14.467Z,7.20
2019-02-25T09:50:43.274Z,7.30
2019-02-25T09:53:12.111Z,7.40
2019-02-25T09:55:40.947Z,7.50
2019-02-25T09:58:09.779Z,7.50
2019-02-25T10:00:38.687Z,7.60
2019-02-25T10:03:07.794Z,7.70
2019-02-25T10:05:36.550Z,7.80
2019-02-25T10:08:05.823Z,7.90
2019-02-25T10:10:34.675Z,8.00
2019-02-25T10:13:04.031Z,8.00
2019-02-25T10:15:33.110Z,8.10
2019-02-25T10:18:01.904Z,8.20
2019-02-25T10:20:30.739Z,8.30
2019-02-25T10:22:59.542Z,8.40
2019-02-25T10:25:28.388Z,8.50
2019-02-25T10:27:57.220Z,8.60
2019-02-25T10:30:26.275Z,8.70
2019-02-25T10:32:55.035Z,8.80
2019-02-25T10:35:24.905Z,8.90
2019-02-25T10:37:53.842Z,9.00
2019-02-25T10:40:25.403Z,9.10
2019-02-25T10:42:53.327Z,9.20
2019-02-25T10:45:22.596Z,9.30
2019-02-25T10:47:54.133Z,9.40
2019-02-25T10:50:22.349Z,9.40
2019-02-25T10:52:51.108Z,9.60
2019-02-25T10:55:23.790Z,9.60
2019-02-25T10:57:53.293Z,9.70
2019-02-25T11:00:23.435Z,9.80
2019-02-25T11:02:53.570Z,9.90
2019-02-25T11:05:23.695Z,10.00
2019-02-25T11:07:53.586Z,10.10
2019-02-25T11:10:41.478Z,10.10
2019-02-25T11:13:10.518Z,10.20
2019-02-25T11:15:40.223Z,10.30
2019-02-25T11:18:09.896Z,10.40
2019-02-25T11:20:38.671Z,10.50
2019-02-25T11:23:07.639Z,10.60
2019-02-25T11:25:36.476Z,10.60
2019-02-25T11:28:07.612Z,10.70
2019-02-25T11:30:36.214Z,10.70
2019-02-25T11:33:05.114Z,10.80
2019-02-25T11:35:34.345Z,10.80
2019-02-25T11:38:03.758Z,10.80
2019-02-25T11:40:34.125Z,10.90
2019-02-25T11:43:03.412Z,11.00
2019-02-25T11:45:32.412Z,11.10
2019-02-25T11:48:01.183Z,11.20
2019-02-25T11:50:30.031Z,11.20
2019-02-25T11:52:58.870Z,11.30
2019-02-25T11:55:27.947Z,11.40
2019-02-25T11:57:56.726Z,11.40
2019-02-25T12:00:25.666Z,11.50
2019-02-25T12:02:54.854Z,11.50
2019-02-25T12:05:23.676Z,11.60
2019-02-25T12:07:52.575Z,11.60
2019-02-25T12:10:21.346Z,11.70
2019-02-25T12:12:50.358Z,11.80
2019-02-25T12:15:19.450Z,11.90
2019-02-25T12:17:48.604Z,12.00
2019-02-25T12:20:17.497Z,12.00
2019-02-25T12:22:46.670Z,12.10
2019-02-25T12:25:15.619Z,12.10
2019-02-25T12:27:44.467Z,12.20
2019-02-25T12:30:15.705Z,12.30
2019-02-25T12:32:44.583Z,12.30
2019-02-25T12:35:13.735Z,12.40
2019-02-25T12:37:42.667Z,12.50
2019-02-25T12:40:11.864Z,12.50
2019-02-25T12:42:40.991Z,12.60
2019-02-25T12:45:10.011Z,12.60
2019-02-25T12:47:38.986Z,12.70
2019-02-25T12:50:09.031Z,12.80
2019-02-25T12:52:38.020Z,12.80
2019-02-25T12:55:08.567Z,12.90
2019-02-25T12:57:37.435Z,12.90
2019-02-25T13:00:08.102Z,13.00
2019-02-25T13:02:36.903Z,13.00
2019-02-25T13:05:06.507Z,13.10
2019-02-25T13:07:35.655Z,13.10
2019-02-25T13:10:06.406Z,13.20
2019-02-25T13:12:35.446Z,13.20
2019-02-25T13:15:13.079Z,13.30
2019-02-25T13:17:35.550Z,13.30
2019-02-25T13:20:04.843Z,13.40
2019-02-25T13:22:34.034Z,13.40
2019-02-25T13:25:03.681Z,13.40
2019-02-25T13:27:33.659Z,13.50
2019-02-25T13:30:02.788Z,13.50
2019-02-25T13:32:31.886Z,13.60
2019-02-25T13:35:00.913Z,13.60
2019-02-25T13:37:30.039Z,13.70
2019-02-25T13:39:59.190Z,13.70
2019-02-25T13:42:28.097Z,13.80
2019-02-25T13:44:56.963Z,13.80
2019-02-25T13:47:25.825Z,13.90
2019-02-25T13:49:55.573Z,14.00
2019-02-25T13:52:24.731Z,14.00
2019-02-25T13:54:53.672Z,14.00
2019-02-25T13:57:22.536Z,14.10
2019-02-25T13:59:51.391Z,14.10
2019-02-25T14:02:20.226Z,14.10
2019-02-25T14:04:49.188Z,14.10
2019-02-25T14:07:18.312Z,14.20
2019-02-25T14:09:47.350Z,14.20
2019-02-25T14:12:16.546Z,14.20
2019-02-25T14:14:45.398Z,14.20
2019-02-25T14:17:14.594Z,14.20
2019-02-25T14:19:43.721Z,14.20
2019-02-25T14:22:14.812Z,14.30
2019-02-25T14:24:43.407Z,14.30
2019-02-25T14:27:12.581Z,14.40
2019-02-25T14:29:41.617Z,14.40
2019-02-25T14:32:12.365Z,14.40
2019-02-25T14:34:41.415Z,14.40
2019-02-25T14:37:11.082Z,14.50
2019-02-25T14:39:40.798Z,14.50
2019-02-25T14:42:12.147Z,14.50
2019-02-25T14:44:43.335Z,14.50
2019-02-25T14:47:20.668Z,14.50
2019-02-25T14:49:42.915Z,14.60
2019-02-25T14:52:12.035Z,14.80
2019-02-25T14:54:40.844Z,14.90
2019-02-25T14:57:09.973Z,15.20
2019-02-25T14:59:39.206Z,15.50
2019-02-25T15:02:08.692Z,16.00
2019-02-25T15:04:39.713Z,16.60
2019-02-25T15:07:10.899Z,17.00
2019-02-25T15:09:41.358Z,17.40
2019-02-25T15:12:11.830Z,18.20
2019-02-25T15:14:41.083Z,18.50
2019-02-25T15:17:10.964Z,18.70
2019-02-25T15:19:42.465Z,19.10
2019-02-25T15:22:11.427Z,19.20
2019-02-25T15:24:40.270Z,19.30
2019-02-25T15:27:11.028Z,19.20
2019-02-25T15:29:42.261Z,19.30
2019-02-25T15:32:11.549Z,19.30
2019-02-25T15:34:40.339Z,19.10
2019-02-25T15:37:10.090Z,19.10
2019-02-25T15:39:42.464Z,19.00
2019-02-25T15:42:10.790Z,18.90
2019-02-25T15:44:40.376Z,18.80
2019-02-25T15:47:11.155Z,18.70
2019-02-25T15:49:41.130Z,18.50
2019-02-25T15:52:10.658Z,18.60
2019-02-25T15:54:41.099Z,18.40
2019-02-25T15:57:10.130Z,18.40
2019-02-25T15:59:39.070Z,18.30
2019-02-25T16:02:09.694Z,18.40
2019-02-25T16:04:40.277Z,18.20
2019-02-25T16:07:10.583Z,18.10
2019-02-25T16:09:39.898Z,17.90
2019-02-25T16:12:09.649Z,17.70
2019-02-25T16:14:39.023Z,17.50
2019-02-25T16:17:07.927Z,17.30
2019-02-25T16:19:43.602Z,17.10
2019-02-25T16:22:09.213Z,16.90
2019-02-25T16:24:38.407Z,16.80
2019-02-25T16:27:07.578Z,16.70
2019-02-25T16:29:37.019Z,16.60
2019-02-25T16:32:05.960Z,17.10
2019-02-25T16:34:36.596Z,16.50
2019-02-25T16:37:06.807Z,16.40
2019-02-25T16:39:35.734Z,16.40
2019-02-25T16:42:04.846Z,16.30
2019-02-25T16:44:33.853Z,16.10
2019-02-25T16:47:02.692Z,15.90
2019-02-25T16:49:33.810Z,15.70
2019-02-25T16:52:02.969Z,15.60
2019-02-25T16:54:31.816Z,15.50
2019-02-25T16:57:00.755Z,15.50
2019-02-25T16:59:29.530Z,15.40
2019-02-25T17:01:59.985Z,15.30
2019-02-25T17:04:31.728Z,15.20
2019-02-25T17:07:00.144Z,15.00
2019-02-25T17:09:31.787Z,14.90
2019-02-25T17:12:02.307Z,14.80
2019-02-25T17:14:31.180Z,14.70
2019-02-25T17:17:00.110Z,14.60
2019-02-25T17:19:29.399Z,14.50
2019-02-25T17:21:58.473Z,14.40
2019-02-25T17:24:28.127Z,14.30
2019-02-25T17:27:00.003Z,14.20
2019-02-25T17:29:28.912Z,14.20
2019-02-25T17:31:59.692Z,14.10
2019-02-25T17:34:29.146Z,14.10
2019-02-25T17:36:58.524Z,14.00
2019-02-25T17:39:29.501Z,14.00
2019-02-25T17:41:59.430Z,13.90
2019-02-25T17:44:30.014Z,13.80
2019-02-25T17:47:01.951Z,13.70
2019-02-25T17:49:31.662Z,13.60
2019-02-25T17:52:01.131Z,13.60
2019-02-25T17:54:31.230Z,13.60
2019-02-25T17:57:00.972Z,13.50
2019-02-25T17:59:31.514Z,13.50
2019-02-25T18:02:02.281Z,13.40
2019-02-25T18:04:32.543Z,13.40
2019-02-25T18:07:01.710Z,13.40
2019-02-25T18:09:30.834Z,13.40
2019-02-25T18:12:00.411Z,13.40
2019-02-25T18:14:30.366Z,13.40
2019-02-25T18:16:59.134Z,13.40
2019-02-25T18:19:28.233Z,13.40
2019-02-25T18:21:58.764Z,13.40
2019-02-25T18:24:28.157Z,13.40
2019-02-25T18:26:57.519Z,13.40
2019-02-25T18:29:26.446Z,13.40
2019-02-25T18:31:55.813Z,12.70
2019-02-25T18:34:24.642Z,13.30
2019-02-25T18:36:55.335Z,13.30
2019-02-25T18:39:25.277Z,13.20
2019-02-25T18:41:55.525Z,13.10
2019-02-25T18:44:26.003Z,13.00
2019-02-25T18:46:55.254Z,13.00
2019-02-25T18:49:26.061Z,12.90
2019-02-25T18:51:55.227Z,12.80
2019-02-25T18:54:25.483Z,12.70
2019-02-25T18:56:54.708Z,12.70
2019-02-25T18:59:23.630Z,12.60
2019-02-25T19:01:53.645Z,12.50
2019-02-25T19:04:22.951Z,12.50
2019-02-25T19:06:51.903Z,12.40
2019-02-25T19:09:23.161Z,12.40
2019-02-25T19:11:53.536Z,12.30
2019-02-25T19:14:24.111Z,12.30
2019-02-25T19:16:53.894Z,12.30
2019-02-25T19:19:25.849Z,12.30
2019-02-25T19:21:56.276Z,12.40
2019-02-25T19:24:25.804Z,12.40
2019-02-25T19:26:54.966Z,12.40
2019-02-25T19:29:25.572Z,12.50
2019-02-25T19:31:56.366Z,12.50
2019-02-25T19:34:25.544Z,12.50
2019-02-25T19:36:57.964Z,12.50
2019-02-25T19:39:25.317Z,12.50
2019-02-25T19:41:56.079Z,12.60
2019-02-25T19:44:24.959Z,12.50
2019-02-25T19:46:55.410Z,12.50
2019-02-25T19:49:24.435Z,12.40
2019-02-25T19:51:53.466Z,12.40
2019-02-25T19:54:22.378Z,12.40
2019-02-25T19:56:53.249Z,12.30
2019-02-25T19:59:23.990Z,12.20
2019-02-25T20:01:52.634Z,12.10
2019-02-25T20:04:21.719Z,12.00
2019-02-25T20:06:51.371Z,11.90
2019-02-25T20:09:22.039Z,11.80
2019-02-25T20:11:50.839Z,11.80
2019-02-25T20:14:19.815Z,11.70
2019-02-25T20:16:48.739Z,11.60
2019-02-25T20:19:17.620Z,11.60
2019-02-25T20:21:48.133Z,11.50
2019-02-25T20:24:18.983Z,11.50
2019-02-25T20:26:50.622Z,11.40
2019-02-25T20:29:18.459Z,11.30
2019-02-25T20:31:48.056Z,11.30
2019-02-25T20:34:20.558Z,11.20
2019-02-25T20:36:50.438Z,11.10
2019-02-25T20:39:19.268Z,11.00
2019-02-25T20:41:49.937Z,10.90
2019-02-25T20:44:20.378Z,10.90
2019-02-25T20:46:52.649Z,10.80
2019-02-25T20:49:20.890Z,10.70
2019-02-25T20:51:52.260Z,10.60
2019-02-25T20:54:22.750Z,10.50
2019-02-25T20:56:53.351Z,10.40
2019-02-25T20:59:24.009Z,10.40
2019-02-25T21:01:52.809Z,10.30
2019-02-25T21:04:22.304Z,10.20
2019-02-25T21:06:51.313Z,10.10
2019-02-25T21:09:20.174Z,10.00
2019-02-25T21:11:49.013Z,10.00
2019-02-25T21:14:17.804Z,9.90
2019-02-25T21:16:46.579Z,9.80
2019-02-25T21:19:18.344Z,9.70
2019-02-25T21:21:46.474Z,9.60
2019-02-25T21:24:15.267Z,9.60
2019-02-25T21:26:44.314Z,9.50
2019-02-25T21:29:13.445Z,9.40
2019-02-25T21:31:43.108Z,9.40
2019-02-25T21:34:17.614Z,9.30
2019-02-25T21:36:43.406Z,9.20
2019-02-25T21:39:14.531Z,9.20
2019-02-25T21:41:44.047Z,9.10
2019-02-25T21:44:16.989Z,9.10
2019-02-25T21:46:49.527Z,9.10
2019-02-25T21:49:15.419Z,9.00
2019-02-25T21:51:47.851Z,9.00
2019-02-25T21:54:15.309Z,9.00
2019-02-25T21:56:44.163Z,9.00
2019-02-25T21:59:15.061Z,9.00
2019-02-25T22:01:43.512Z,8.90
2019-02-25T22:04:13.390Z,8.90
2019-02-25T22:06:42.773Z,8.90
2019-02-25T22:09:11.675Z,8.90
2019-02-25T22:11:40.530Z,8.90
2019-02-25T22:14:09.319Z,8.90
2019-02-25T22:16:44.122Z,8.80
2019-02-25T22:19:10.393Z,8.70
2019-02-25T22:21:39.140Z,8.70
2019-02-25T22:24:09.703Z,8.70
2019-02-25T22:26:38.611Z,8.60
2019-02-25T22:29:07.509Z,8.60
2019-02-25T22:31:37.289Z,8.50
2019-02-25T22:34:08.831Z,8.50
2019-02-25T22:36:41.639Z,8.60
2019-02-25T22:39:09.519Z,8.60
2019-02-25T22:41:40.117Z,8.60
2019-02-25T22:44:10.642Z,8.60
2019-02-25T22:46:41.699Z,8.60
2019-02-25T22:49:10.835Z,8.50
2019-02-25T22:51:39.915Z,8.40
2019-02-25T22:54:10.340Z,8.40
2019-02-25T22:56:39.332Z,8.40
2019-02-25T22:59:08.411Z,8.40
2019-02-25T23:01:37.456Z,8.40
2019-02-25T23:04:06.214Z,8.30
2019-02-25T23:06:35.087Z,8.20
2019-02-25T23:09:12.240Z,8.20
2019-02-25T23:11:41.790Z,8.20
2019-02-25T23:14:11.416Z,8.20
2019-02-25T23:16:41.527Z,8.10
2019-02-25T23:19:11.999Z,8.20
2019-02-25T23:21:42.101Z,8.10
2019-02-25T23:24:11.131Z,8.10
2019-02-25T23:26:39.959Z,8.00
2019-02-25T23:29:08.963Z,8.00
2019-02-25T23:31:37.906Z,7.90
2019-02-25T23:34:08.020Z,7.90
2019-02-25T23:36:40.698Z,7.80
2019-02-25T23:39:08.030Z,7.80
2019-02-25T23:41:38.976Z,7.90
2019-02-25T23:44:08.972Z,7.90
2019-02-25T23:46:40.014Z,7.80
2019-02-25T23:49:09.345Z,7.70
2019-02-25T23:51:39.458Z,7.70
2019-02-25T23:54:09.524Z,7.60
2019-02-25T23:56:39.193Z,7.70
2019-02-25T23:59:10.721Z,7.70
